Pagrindinis puslapis
METAR-TAF:

METAR-TAF

Oro uostai :

Vitebskas, Baltarusija

platuma: 55-10N, ilguma: 030-13E, Aukštis: 176 m

Dabartinis oras

Ataskaita buvo paskelbta 10 minutes, ne 09:00 UTC
Vėjas 14 kt iš Pietų/Pietryčių su gūsio iki 19 kt
Temperatūra -7°C
Drėgmė 79%
Slėgis 1013 hPa
Matomumas 10 km arba daugiau
Su prošvaistėmis ne aukštis 1600 ft

METAR: UMII 070900Z 15007G10MPS 9999 BKN016 M07/M10 Q1013 TEMPO 2000 SN BKN005

Laikas: 12:10 (09:10 UTC)

Prognozė

Ataskaita buvo paskelbta 1 valandą ir 1 minutes, ne 08:09 UTC
Prognozė galioja nuo 07 metu 09 UTC su 07 metu 18 UTC
Vėjas 10 kt iš Pietų/Pietryčių su gūsio iki 19 kt
Matomumas: 6000 m
Apsiniaukę ne aukštis 1000 ft
Laikinai
nuo 07 metu 09 UTC su 07 metu 18 UTC
Vėjas 17 kt iš Pietų su gūsio iki 27 kt
Matomumas: 1500 m
Su prošvaistėmis ne aukštis 400 ft
Su prošvaistėmis ne aukštis 1000 ft, Liūtiniai kamuoliniai debesys.
ledijantis dulksna, sniegas, Sniego pustymas

TAF: UMII 070809Z 0709/0718 15005G10MPS 6000 OVC010 TEMPO 0709/0718 18009G14MPS 1500 FZDZ SHSN BLSN BKN004 BKN010CB

Orai ataskaitas ir orų prognozės (METAR, TAF).

turimą stotys yra geltonos ir raudonos taškus žemėlapyje.

Perkelti pele per norėdami pamatyti stoties vardą.

Tada spustelėkite, norėdami matyti oro stebėjimo ir prognozės.

Norėdami pakeisti žemėlapį: spustelėkite ant žalios mygtukų su juodo kryžiaus žemyn,; žalią mygtuką su brūkšneliu, jei norite nutolinti; arba žalių rodyklių gretimoms žemėlapius.


METAR-TAF: